createdAt,value
2022-12-26T00:00:59.773Z,3.92
2022-12-26T00:03:27.017Z,3.55
2022-12-26T00:05:54.377Z,4.60
2022-12-26T00:08:22.692Z,4.93
2022-12-26T00:10:49.680Z,4.22
2022-12-26T00:13:38.383Z,4.97
2022-12-26T00:16:12.268Z,5.22
2022-12-26T00:18:39.554Z,4.25
2022-12-26T00:21:08.616Z,5.82
2022-12-26T00:23:36.457Z,4.72
2022-12-26T00:26:18.407Z,4.90
2022-12-26T00:31:16.859Z,5.20
2022-12-26T00:33:43.939Z,4.75
2022-12-26T00:36:16.764Z,5.45
2022-12-26T00:38:45.347Z,4.43
2022-12-26T00:41:13.731Z,5.35
2022-12-26T00:43:40.747Z,5.00
2022-12-26T00:46:08.580Z,4.85
2022-12-26T00:48:35.872Z,6.15
2022-12-26T00:51:03.257Z,4.32
2022-12-26T00:53:30.251Z,5.15
2022-12-26T00:55:57.327Z,7.18
2022-12-26T00:58:25.324Z,4.45
2022-12-26T01:00:54.994Z,4.85
2022-12-26T01:03:22.383Z,5.60
2022-12-26T01:05:51.820Z,4.03
2022-12-26T01:08:24.149Z,3.85
2022-12-26T01:10:52.468Z,3.97
2022-12-26T01:13:19.583Z,5.15
2022-12-26T01:15:51.852Z,4.28
2022-12-26T01:18:19.480Z,4.53
2022-12-26T01:20:46.532Z,5.80
2022-12-26T01:23:13.620Z,3.88
2022-12-26T01:26:18.064Z,5.10
2022-12-26T01:28:29.016Z,4.82
2022-12-26T01:30:55.910Z,4.75
2022-12-26T01:33:22.901Z,4.95
2022-12-26T01:35:53.474Z,6.00
2022-12-26T01:38:21.795Z,5.47
2022-12-26T01:41:09.769Z,6.78
2022-12-26T01:44:05.259Z,4.78
2022-12-26T01:46:43.996Z,6.72
2022-12-26T01:49:36.798Z,6.72
2022-12-26T01:52:09.526Z,5.03
2022-12-26T01:54:42.816Z,5.10
2022-12-26T01:57:27.303Z,5.65
2022-12-26T01:59:57.222Z,5.95
2022-12-26T02:02:28.739Z,5.38
2022-12-26T02:05:16.477Z,4.72
2022-12-26T02:07:45.855Z,5.50
2022-12-26T02:10:20.195Z,5.28
2022-12-26T02:12:48.457Z,4.95
2022-12-26T02:15:17.131Z,6.18
2022-12-26T02:17:46.816Z,5.63
2022-12-26T02:20:24.739Z,6.22
2022-12-26T02:23:29.525Z,6.20
2022-12-26T02:26:41.301Z,5.70
2022-12-26T02:29:29.317Z,5.90
2022-12-26T02:32:32.729Z,6.53
2022-12-26T02:35:08.596Z,6.07
2022-12-26T02:38:10.812Z,5.82
2022-12-26T02:40:56.229Z,5.72
2022-12-26T02:43:32.570Z,6.55
2022-12-26T02:46:54.725Z,5.60
2022-12-26T02:50:20.372Z,6.97
2022-12-26T02:53:35.080Z,5.00
2022-12-26T02:56:26.967Z,6.65
2022-12-26T02:59:55.359Z,4.85
2022-12-26T03:03:11.698Z,5.65
2022-12-26T03:05:59.997Z,5.10
2022-12-26T03:09:05.608Z,6.15
2022-12-26T03:12:00.140Z,5.72
2022-12-26T03:14:35.485Z,5.10
2022-12-26T03:17:20.412Z,5.22
2022-12-26T03:19:59.878Z,5.22
2022-12-26T03:22:42.578Z,5.45
2022-12-26T03:25:31.617Z,5.22
2022-12-26T03:27:58.659Z,4.72
2022-12-26T03:30:44.172Z,6.88
2022-12-26T03:33:31.144Z,5.50
2022-12-26T03:35:58.910Z,5.07
2022-12-26T03:39:08.116Z,5.45
2022-12-26T03:42:05.510Z,4.32
2022-12-26T03:45:06.245Z,4.57
2022-12-26T03:48:38.070Z,4.15
2022-12-26T03:51:32.467Z,3.33
2022-12-26T03:54:27.746Z,4.22
2022-12-26T03:57:23.437Z,4.25
2022-12-26T04:00:17.139Z,4.03
2022-12-26T04:03:06.049Z,3.85
2022-12-26T04:05:56.000Z,2.67
2022-12-26T04:09:13.036Z,3.33
2022-12-26T04:12:01.740Z,2.80
2022-12-26T04:14:47.111Z,3.20
2022-12-26T04:17:59.979Z,2.20
2022-12-26T04:20:33.878Z,2.47
2022-12-26T04:23:27.643Z,2.28
2022-12-26T04:26:26.153Z,2.40
2022-12-26T04:29:11.996Z,1.58
2022-12-26T04:32:12.297Z,2.50
2022-12-26T04:35:09.201Z,2.10
2022-12-26T04:38:00.166Z,2.60
2022-12-26T04:40:50.745Z,2.15
2022-12-26T04:43:48.707Z,1.77
2022-12-26T04:46:23.009Z,2.15
2022-12-26T04:49:12.434Z,1.67
2022-12-26T04:51:40.079Z,1.83
2022-12-26T04:54:07.364Z,1.67
2022-12-26T04:56:34.792Z,1.65
2022-12-26T04:59:01.904Z,1.50
2022-12-26T05:01:47.444Z,1.50
2022-12-26T05:04:36.794Z,2.15
2022-12-26T05:07:30.147Z,1.77
2022-12-26T05:09:57.256Z,1.08
2022-12-26T05:12:24.234Z,1.20
2022-12-26T05:14:51.302Z,1.67
2022-12-26T05:17:37.050Z,1.25
2022-12-26T05:20:23.106Z,1.70
2022-12-26T05:23:09.053Z,1.30
2022-12-26T05:25:58.810Z,1.90
2022-12-26T05:28:47.202Z,1.33
2022-12-26T05:31:17.525Z,1.00
2022-12-26T05:34:03.558Z,1.10
2022-12-26T05:36:50.493Z,1.70
2022-12-26T05:39:17.676Z,1.08
2022-12-26T05:41:47.171Z,2.10
2022-12-26T05:44:14.598Z,1.80
2022-12-26T05:46:44.337Z,1.30
2022-12-26T05:49:11.399Z,3.25
2022-12-26T05:51:38.694Z,1.90
2022-12-26T05:54:05.865Z,2.00
2022-12-26T05:56:33.789Z,2.35
2022-12-26T05:59:01.655Z,2.22
2022-12-26T06:01:29.815Z,1.65
2022-12-26T06:03:59.066Z,1.85
2022-12-26T06:06:27.169Z,2.10
2022-12-26T06:08:55.687Z,2.03
2022-12-26T06:11:24.834Z,2.00
2022-12-26T06:13:52.016Z,2.40
2022-12-26T06:16:19.769Z,2.22
2022-12-26T06:18:46.924Z,2.55
2022-12-26T06:21:19.336Z,2.08
2022-12-26T06:23:47.557Z,1.85
2022-12-26T06:26:14.871Z,1.77
2022-12-26T06:28:43.554Z,1.48
2022-12-26T06:31:15.007Z,1.60
2022-12-26T06:33:42.645Z,1.33
2022-12-26T06:36:21.624Z,1.67
2022-12-26T06:38:49.111Z,1.30
2022-12-26T06:41:18.811Z,1.17
2022-12-26T06:43:46.339Z,1.17
2022-12-26T06:46:16.236Z,1.17
2022-12-26T06:48:43.293Z,2.22
2022-12-26T06:51:13.816Z,1.52
2022-12-26T06:53:41.082Z,1.63
2022-12-26T06:56:19.784Z,1.50
2022-12-26T06:58:47.246Z,1.30
2022-12-26T07:01:17.089Z,1.17
2022-12-26T07:03:51.255Z,2.67
2022-12-26T07:06:29.237Z,2.00
2022-12-26T07:09:01.697Z,1.63
2022-12-26T07:11:31.766Z,1.10
2022-12-26T07:13:59.435Z,0.88
2022-12-26T07:16:30.799Z,2.17
2022-12-26T07:18:59.128Z,1.05
2022-12-26T07:21:28.598Z,1.15
2022-12-26T07:23:56.596Z,0.90
2022-12-26T07:26:29.223Z,0.75
2022-12-26T07:29:00.885Z,1.70
2022-12-26T07:34:05.706Z,0.88
2022-12-26T07:36:32.993Z,1.05
2022-12-26T07:39:02.513Z,2.08
2022-12-26T07:41:48.299Z,0.80
2022-12-26T07:44:15.476Z,1.67
2022-12-26T07:46:42.690Z,0.95
2022-12-26T07:49:14.054Z,0.80
2022-12-26T07:51:42.515Z,0.80
2022-12-26T07:54:12.598Z,0.98
2022-12-26T07:56:41.040Z,0.93
2022-12-26T07:59:12.230Z,1.45
2022-12-26T08:01:42.926Z,1.08
2022-12-26T08:04:14.528Z,0.75
2022-12-26T08:06:41.651Z,0.80
2022-12-26T08:09:15.957Z,1.08
2022-12-26T08:11:44.099Z,0.98
2022-12-26T08:14:12.705Z,0.80
2022-12-26T08:16:47.940Z,0.60
2022-12-26T08:19:18.217Z,0.95
2022-12-26T08:21:45.164Z,0.95
2022-12-26T08:24:12.674Z,0.93
2022-12-26T08:26:39.636Z,0.63
2022-12-26T08:29:06.707Z,0.73
2022-12-26T08:31:33.897Z,0.65
2022-12-26T08:34:01.139Z,0.90
2022-12-26T08:36:29.365Z,0.80
2022-12-26T08:38:57.834Z,1.08
2022-12-26T08:41:25.107Z,0.90
2022-12-26T08:46:40.169Z,0.77
2022-12-26T08:49:07.289Z,0.82
2022-12-26T08:51:34.323Z,1.08
2022-12-26T08:54:01.380Z,1.25
2022-12-26T08:56:28.886Z,0.80
2022-12-26T08:58:56.223Z,1.05
2022-12-26T09:01:26.298Z,0.73
2022-12-26T09:03:55.140Z,0.90
2022-12-26T09:06:22.661Z,0.95
2022-12-26T09:08:50.234Z,0.98
2022-12-26T09:11:23.536Z,1.00
2022-12-26T09:13:50.752Z,0.60
2022-12-26T09:16:21.079Z,1.60
2022-12-26T09:18:52.780Z,0.80
2022-12-26T09:21:19.773Z,1.48
2022-12-26T09:23:46.981Z,0.68
2022-12-26T09:26:19.834Z,1.08
2022-12-26T09:28:47.543Z,1.77
2022-12-26T09:31:17.468Z,0.75
2022-12-26T09:33:45.373Z,1.10
2022-12-26T09:36:15.406Z,1.10
2022-12-26T09:38:44.060Z,1.00
2022-12-26T09:41:24.173Z,0.88
2022-12-26T09:44:13.327Z,0.90
2022-12-26T09:47:14.284Z,0.65
2022-12-26T09:50:04.984Z,0.85
2022-12-26T09:52:38.773Z,1.17
2022-12-26T09:55:30.705Z,0.80
2022-12-26T09:58:04.644Z,0.75
2022-12-26T10:00:43.339Z,0.82
2022-12-26T10:03:12.750Z,1.25
2022-12-26T10:06:01.463Z,1.27
2022-12-26T10:08:48.786Z,0.82
2022-12-26T10:11:47.404Z,0.90
2022-12-26T10:14:37.413Z,0.90
2022-12-26T10:17:31.187Z,2.13
2022-12-26T10:20:22.665Z,1.25
2022-12-26T10:23:14.599Z,1.23
2022-12-26T10:25:49.850Z,1.65
2022-12-26T10:28:27.935Z,1.42
2022-12-26T10:30:57.698Z,1.90
2022-12-26T10:33:38.847Z,1.27
2022-12-26T10:36:06.415Z,1.02
2022-12-26T10:38:40.981Z,1.10
2022-12-26T10:41:24.247Z,1.10
2022-12-26T10:43:51.540Z,1.23
2022-12-26T10:46:37.681Z,1.05
2022-12-26T10:49:04.793Z,0.88
2022-12-26T10:51:32.055Z,0.98
2022-12-26T10:53:59.134Z,0.93
2022-12-26T10:56:27.437Z,0.70
2022-12-26T10:59:05.533Z,1.63
2022-12-26T11:01:35.743Z,0.82
2022-12-26T11:04:06.556Z,1.10
2022-12-26T11:06:41.927Z,1.10
2022-12-26T11:09:43.173Z,0.85
2022-12-26T11:12:35.927Z,0.80
2022-12-26T11:15:13.518Z,0.90
2022-12-26T11:17:44.374Z,1.20
2022-12-26T11:20:17.401Z,1.30
2022-12-26T11:22:45.824Z,1.00
2022-12-26T11:25:15.813Z,0.93
2022-12-26T11:27:53.311Z,0.80
2022-12-26T11:30:22.594Z,0.90
2022-12-26T11:33:09.966Z,0.82
2022-12-26T11:36:00.387Z,1.10
2022-12-26T11:38:39.183Z,0.75
2022-12-26T11:41:32.964Z,0.82
2022-12-26T11:44:26.549Z,0.63
2022-12-26T11:47:15.712Z,0.70
2022-12-26T11:50:02.711Z,0.65
2022-12-26T11:52:59.137Z,1.58
2022-12-26T11:55:37.116Z,0.70
2022-12-26T11:58:09.827Z,0.95
2022-12-26T12:00:42.149Z,0.73
2022-12-26T12:03:22.829Z,0.70
2022-12-26T12:05:53.366Z,0.57
2022-12-26T12:08:35.796Z,0.70
2022-12-26T12:11:16.272Z,0.82
2022-12-26T12:13:55.780Z,1.13
2022-12-26T12:16:50.047Z,1.55
2022-12-26T12:19:23.173Z,1.08
2022-12-26T12:22:17.380Z,1.02
2022-12-26T12:25:05.621Z,1.15
2022-12-26T12:27:44.164Z,0.60
2022-12-26T12:30:19.392Z,0.68
2022-12-26T12:33:20.107Z,0.98
2022-12-26T12:36:08.624Z,0.80
2022-12-26T12:39:12.900Z,1.40
2022-12-26T12:42:01.532Z,1.42
2022-12-26T12:44:49.328Z,1.20
2022-12-26T12:47:38.848Z,0.90
2022-12-26T12:50:25.353Z,0.65
2022-12-26T12:53:09.524Z,0.47
2022-12-26T12:55:57.036Z,1.10
2022-12-26T12:58:41.944Z,1.00
2022-12-26T13:01:16.122Z,1.15
2022-12-26T13:03:54.325Z,1.77
2022-12-26T13:06:29.059Z,1.15
2022-12-26T13:09:07.181Z,0.50
2022-12-26T13:11:48.588Z,0.73
2022-12-26T13:14:22.035Z,0.68
2022-12-26T13:17:04.793Z,0.88
2022-12-26T13:19:53.653Z,0.55
2022-12-26T13:22:59.008Z,0.70
2022-12-26T13:25:32.159Z,0.75
2022-12-26T13:28:09.641Z,0.50
2022-12-26T13:30:38.244Z,0.40
2022-12-26T13:33:06.102Z,0.60
2022-12-26T13:35:57.039Z,1.00
2022-12-26T13:38:52.308Z,1.23
2022-12-26T13:41:39.745Z,0.60
2022-12-26T13:44:23.361Z,0.80
2022-12-26T13:46:50.469Z,0.82
2022-12-26T13:49:37.001Z,3.22
2022-12-26T13:52:16.054Z,0.90
2022-12-26T13:54:50.350Z,0.93
2022-12-26T13:57:44.551Z,0.70
2022-12-26T14:00:40.475Z,1.10
2022-12-26T14:03:29.533Z,0.70
2022-12-26T14:06:12.589Z,0.85
2022-12-26T14:09:03.280Z,0.88
2022-12-26T14:11:49.692Z,0.50
2022-12-26T14:14:25.742Z,0.90
2022-12-26T14:17:04.715Z,0.60
2022-12-26T14:19:50.839Z,0.70
2022-12-26T14:22:24.361Z,0.85
2022-12-26T14:25:10.442Z,0.50
2022-12-26T14:27:40.231Z,0.80
2022-12-26T14:30:44.222Z,0.60
2022-12-26T14:33:27.805Z,0.80
2022-12-26T14:36:02.691Z,0.65
2022-12-26T14:38:49.008Z,1.33
2022-12-26T14:41:36.677Z,1.95
2022-12-26T14:44:29.975Z,0.65
2022-12-26T14:47:00.398Z,0.63
2022-12-26T14:49:35.893Z,0.50
2022-12-26T14:52:43.370Z,0.60
2022-12-26T14:55:47.520Z,0.80
2022-12-26T14:58:32.846Z,0.80
2022-12-26T15:01:18.339Z,0.77
2022-12-26T15:04:10.007Z,0.70
2022-12-26T15:06:58.692Z,0.68
2022-12-26T15:09:38.020Z,0.75
2022-12-26T15:12:05.357Z,0.70
2022-12-26T15:15:11.376Z,0.70
2022-12-26T15:17:51.501Z,0.70
2022-12-26T15:20:45.888Z,0.52
2022-12-26T15:23:26.958Z,1.00
2022-12-26T15:26:22.523Z,0.70
2022-12-26T15:29:05.805Z,0.82
2022-12-26T15:31:36.708Z,0.68
2022-12-26T15:34:39.557Z,0.80
2022-12-26T15:37:28.536Z,0.70
2022-12-26T15:40:23.480Z,1.45
2022-12-26T15:42:58.226Z,0.80
2022-12-26T15:45:49.994Z,1.33
2022-12-26T15:48:16.924Z,0.60
2022-12-26T15:51:02.127Z,0.68
2022-12-26T15:53:50.714Z,0.75
2022-12-26T15:56:36.154Z,0.80
2022-12-26T15:59:27.421Z,1.10
2022-12-26T16:01:54.863Z,1.30
2022-12-26T16:04:34.837Z,1.20
2022-12-26T16:07:01.774Z,1.08
2022-12-26T16:09:45.605Z,1.67
2022-12-26T16:12:32.121Z,1.02
2022-12-26T16:15:11.154Z,1.20
2022-12-26T16:17:39.544Z,1.00
2022-12-26T16:20:47.762Z,1.30
2022-12-26T16:23:22.187Z,1.45
2022-12-26T16:25:50.913Z,1.23
2022-12-26T16:28:26.593Z,1.40
2022-12-26T16:30:53.803Z,1.40
2022-12-26T16:33:21.013Z,2.25
2022-12-26T16:35:48.020Z,2.65
2022-12-26T16:38:22.967Z,1.55
2022-12-26T16:40:51.595Z,1.60
2022-12-26T16:43:18.453Z,1.10
2022-12-26T16:45:51.173Z,2.25
2022-12-26T16:48:21.776Z,2.17
2022-12-26T16:50:56.569Z,2.95
2022-12-26T16:53:36.038Z,1.85
2022-12-26T16:56:17.862Z,2.17
2022-12-26T16:58:45.655Z,1.92
2022-12-26T17:01:16.853Z,2.30
2022-12-26T17:03:54.424Z,1.90
2022-12-26T17:06:29.048Z,2.90
2022-12-26T17:08:57.467Z,2.53
2022-12-26T17:11:33.732Z,3.13
2022-12-26T17:14:03.878Z,2.58
2022-12-26T17:16:32.105Z,2.22
2022-12-26T17:19:19.344Z,1.67
2022-12-26T17:22:14.160Z,1.77
2022-12-26T17:24:51.836Z,2.28
2022-12-26T17:27:24.787Z,2.78
2022-12-26T17:30:20.041Z,2.60
2022-12-26T17:32:47.926Z,2.45
2022-12-26T17:35:24.022Z,1.48
2022-12-26T17:37:56.868Z,1.50
2022-12-26T17:40:35.118Z,1.60
2022-12-26T17:43:11.389Z,2.05
2022-12-26T17:45:46.336Z,1.65
2022-12-26T17:48:14.387Z,1.60
2022-12-26T17:50:45.306Z,2.05
2022-12-26T17:53:35.049Z,2.00
2022-12-26T17:56:10.263Z,1.77
2022-12-26T17:58:37.400Z,1.48
2022-12-26T18:01:04.719Z,2.97
2022-12-26T18:03:32.121Z,1.85
2022-12-26T18:05:59.141Z,2.10
2022-12-26T18:08:32.963Z,1.50
2022-12-26T18:11:01.328Z,1.55
2022-12-26T18:13:28.799Z,2.83
2022-12-26T18:15:57.992Z,2.05
2022-12-26T18:18:25.041Z,1.05
2022-12-26T18:20:52.334Z,2.15
2022-12-26T18:23:23.088Z,2.15
2022-12-26T18:25:54.423Z,2.55
2022-12-26T18:28:22.073Z,2.30
2022-12-26T18:30:49.082Z,2.28
2022-12-26T18:33:16.069Z,2.08
2022-12-26T18:35:44.190Z,2.40
2022-12-26T18:38:15.732Z,1.90
2022-12-26T18:40:49.074Z,2.20
2022-12-26T18:43:16.336Z,1.80
2022-12-26T18:45:43.508Z,1.27
2022-12-26T18:48:15.611Z,2.10
2022-12-26T18:50:43.287Z,1.52
2022-12-26T18:53:11.116Z,1.48
2022-12-26T18:55:38.241Z,1.50
2022-12-26T18:58:06.178Z,1.55
2022-12-26T19:00:33.558Z,1.67
2022-12-26T19:03:00.619Z,1.60
2022-12-26T19:05:33.972Z,1.35
2022-12-26T19:08:02.267Z,1.77
2022-12-26T19:10:34.340Z,3.05
2022-12-26T19:13:06.469Z,1.73
2022-12-26T19:15:34.928Z,2.45
2022-12-26T19:18:02.866Z,2.33
2022-12-26T19:20:30.080Z,2.35
2022-12-26T19:22:57.237Z,2.28
2022-12-26T19:25:28.215Z,2.83
2022-12-26T19:28:02.494Z,2.10
2022-12-26T19:30:32.360Z,2.78
2022-12-26T19:33:04.119Z,2.35
2022-12-26T19:35:31.182Z,1.63
2022-12-26T19:37:58.590Z,1.85
2022-12-26T19:40:25.952Z,2.05
2022-12-26T19:42:54.072Z,1.33
2022-12-26T19:45:21.829Z,1.77
2022-12-26T19:47:48.915Z,1.90
2022-12-26T19:50:15.983Z,3.05
2022-12-26T19:52:43.007Z,1.48
2022-12-26T19:55:12.137Z,2.42
2022-12-26T19:57:39.197Z,1.85
2022-12-26T20:00:07.249Z,2.72
2022-12-26T20:02:41.181Z,1.88
2022-12-26T20:05:08.979Z,1.83
2022-12-26T20:07:35.980Z,2.53
2022-12-26T20:10:03.730Z,2.53
2022-12-26T20:12:30.759Z,3.13
2022-12-26T20:14:57.726Z,2.70
2022-12-26T20:17:24.808Z,3.67
2022-12-26T20:19:52.268Z,2.40
2022-12-26T20:22:19.288Z,2.90
2022-12-26T20:24:47.254Z,3.45
2022-12-26T20:27:16.008Z,2.80
2022-12-26T20:29:43.005Z,2.95
2022-12-26T20:32:10.071Z,2.80
2022-12-26T20:34:37.302Z,3.03
2022-12-26T20:37:04.533Z,2.47
2022-12-26T20:39:32.107Z,3.40
2022-12-26T20:41:59.706Z,2.67
2022-12-26T20:44:27.124Z,3.70
2022-12-26T20:46:54.134Z,2.92
2022-12-26T20:49:21.325Z,2.97
2022-12-26T20:51:48.300Z,2.72
2022-12-26T20:54:16.501Z,2.45
2022-12-26T20:56:45.350Z,3.72
2022-12-26T20:59:14.085Z,3.15
2022-12-26T21:01:41.663Z,2.90
2022-12-26T21:04:15.924Z,2.38
2022-12-26T21:06:45.502Z,3.67
2022-12-26T21:09:12.572Z,2.72
2022-12-26T21:11:44.991Z,2.78
2022-12-26T21:14:18.025Z,3.97
2022-12-26T21:16:54.833Z,3.53
2022-12-26T21:19:24.153Z,4.63
2022-12-26T21:21:53.990Z,2.92
2022-12-26T21:24:28.431Z,1.75
2022-12-26T21:26:56.471Z,2.15
2022-12-26T21:29:29.820Z,1.83
2022-12-26T21:31:57.275Z,3.15
2022-12-26T21:34:27.136Z,2.78
2022-12-26T21:37:13.767Z,1.77
2022-12-26T21:39:41.714Z,2.35
2022-12-26T21:42:09.697Z,2.53
2022-12-26T21:44:36.924Z,2.28
2022-12-26T21:47:05.800Z,3.10
2022-12-26T21:49:32.897Z,2.70
2022-12-26T21:51:59.938Z,2.75
2022-12-26T21:54:49.197Z,2.45
2022-12-26T21:57:17.800Z,3.47
2022-12-26T21:59:58.473Z,2.10
2022-12-26T22:02:50.294Z,2.28
2022-12-26T22:05:19.668Z,2.38
2022-12-26T22:07:47.273Z,2.60
2022-12-26T22:10:33.139Z,2.50
2022-12-26T22:13:01.194Z,2.33
2022-12-26T22:15:47.315Z,2.92
2022-12-26T22:18:14.459Z,3.88
2022-12-26T22:20:41.587Z,3.33
2022-12-26T22:23:08.565Z,2.58
2022-12-26T22:25:35.456Z,2.70
2022-12-26T22:28:02.450Z,2.10
2022-12-26T22:30:29.429Z,3.08
2022-12-26T22:32:56.607Z,2.63
2022-12-26T22:35:23.614Z,1.80
2022-12-26T22:37:50.617Z,1.85
2022-12-26T22:40:17.685Z,1.70
2022-12-26T22:42:44.695Z,1.60
2022-12-26T22:45:11.716Z,2.53
2022-12-26T22:47:38.697Z,1.77
2022-12-26T22:50:06.034Z,2.95
2022-12-26T22:52:33.050Z,2.20
2022-12-26T22:55:00.101Z,2.67
2022-12-26T22:57:27.083Z,1.90
2022-12-26T23:00:10.777Z,2.85
2022-12-26T23:02:38.343Z,1.77
2022-12-26T23:05:06.411Z,2.38
2022-12-26T23:07:33.563Z,2.63
2022-12-26T23:10:00.768Z,2.63
2022-12-26T23:12:43.353Z,2.97
2022-12-26T23:15:16.779Z,1.65
2022-12-26T23:18:13.366Z,2.20
2022-12-26T23:20:58.926Z,2.15
2022-12-26T23:23:26.607Z,1.92
2022-12-26T23:25:53.545Z,1.80
2022-12-26T23:28:38.951Z,2.25
2022-12-26T23:31:06.025Z,1.90
2022-12-26T23:33:33.123Z,2.08
2022-12-26T23:36:00.185Z,2.17
2022-12-26T23:38:27.241Z,2.58
2022-12-26T23:40:54.392Z,1.65
2022-12-26T23:43:21.425Z,2.13
2022-12-26T23:45:48.420Z,2.05
2022-12-26T23:48:15.773Z,2.70
2022-12-26T23:50:42.786Z,2.70
2022-12-26T23:53:09.764Z,1.90
2022-12-26T23:55:40.651Z,2.42
2022-12-26T23:58:08.112Z,1.70
